sensor_id;sensor_type;location;lat;lon;timestamp;pressure;altitude;pressure_sealevel;temperature;humidity
64933;BME280;51446;53.850;10.662;2023-11-19T00:00:15;100970.38;;;4.10;100.00
64933;BME280;51446;53.850;10.662;2023-11-19T00:02:41;100960.94;;;4.12;100.00
64933;BME280;51446;53.850;10.662;2023-11-19T00:05:07;100951.31;;;4.09;100.00
64933;BME280;51446;53.850;10.662;2023-11-19T00:07:39;100948.94;;;4.14;100.00
64933;BME280;51446;53.850;10.662;2023-11-19T00:10:09;100943.00;;;4.16;100.00
64933;BME280;51446;53.850;10.662;2023-11-19T00:12:42;100936.97;;;4.17;100.00
64933;BME280;51446;53.850;10.662;2023-11-19T00:15:07;100938.63;;;4.15;100.00
64933;BME280;51446;53.850;10.662;2023-11-19T00:17:40;100934.44;;;4.19;100.00
64933;BME280;51446;53.850;10.662;2023-11-19T00:20:06;100923.44;;;4.25;100.00
64933;BME280;51446;53.850;10.662;2023-11-19T00:22:32;100911.22;;;4.22;100.00
64933;BME280;51446;53.850;10.662;2023-11-19T00:24:58;100917.31;;;4.23;100.00
64933;BME280;51446;53.850;10.662;2023-11-19T00:27:23;100904.38;;;4.24;100.00
64933;BME280;51446;53.850;10.662;2023-11-19T00:29:48;100892.22;;;4.23;100.00
64933;BME280;51446;53.850;10.662;2023-11-19T00:32:14;100891.41;;;4.24;100.00
64933;BME280;51446;53.850;10.662;2023-11-19T00:34:40;100880.28;;;4.27;100.00
64933;BME280;51446;53.850;10.662;2023-11-19T00:37:05;100879.47;;;4.28;100.00
64933;BME280;51446;53.850;10.662;2023-11-19T00:39:31;100857.84;;;4.29;100.00
64933;BME280;51446;53.850;10.662;2023-11-19T00:41:57;100855.94;;;4.25;100.00
64933;BME280;51446;53.850;10.662;2023-11-19T00:44:22;100852.66;;;4.29;100.00
64933;BME280;51446;53.850;10.662;2023-11-19T00:46:48;100854.88;;;4.20;100.00
64933;BME280;51446;53.850;10.662;2023-11-19T00:49:13;100836.97;;;4.26;100.00
64933;BME280;51446;53.850;10.662;2023-11-19T00:51:38;100834.53;;;4.30;100.00
64933;BME280;51446;53.850;10.662;2023-11-19T00:54:03;100839.63;;;4.27;100.00
64933;BME280;51446;53.850;10.662;2023-11-19T00:56:29;100830.13;;;4.28;100.00
64933;BME280;51446;53.850;10.662;2023-11-19T00:58:54;100812.59;;;4.22;100.00
64933;BME280;51446;53.850;10.662;2023-11-19T01:01:19;100814.47;;;4.26;100.00
64933;BME280;51446;53.850;10.662;2023-11-19T01:03:45;100807.72;;;4.30;100.00
64933;BME280;51446;53.850;10.662;2023-11-19T01:06:10;100808.47;;;4.27;100.00
64933;BME280;51446;53.850;10.662;2023-11-19T01:08:36;100800.69;;;4.27;100.00
64933;BME280;51446;53.850;10.662;2023-11-19T01:11:01;100800.63;;;4.26;100.00
64933;BME280;51446;53.850;10.662;2023-11-19T01:13:27;100778.22;;;4.28;100.00
64933;BME280;51446;53.850;10.662;2023-11-19T01:15:52;100787.75;;;4.29;100.00
64933;BME280;51446;53.850;10.662;2023-11-19T01:18:17;100777.25;;;4.26;100.00
64933;BME280;51446;53.850;10.662;2023-11-19T01:20:43;100776.44;;;4.27;100.00
64933;BME280;51446;53.850;10.662;2023-11-19T01:23:08;100766.94;;;4.27;100.00
64933;BME280;51446;53.850;10.662;2023-11-19T01:25:33;100759.09;;;4.26;100.00
64933;BME280;51446;53.850;10.662;2023-11-19T01:28:00;100750.72;;;4.33;100.00
64933;BME280;51446;53.850;10.662;2023-11-19T01:30:27;100742.19;;;4.36;100.00
64933;BME280;51446;53.850;10.662;2023-11-19T01:32:53;100743.69;;;4.30;100.00
64933;BME280;51446;53.850;10.662;2023-11-19T01:35:18;100729.03;;;4.31;100.00
64933;BME280;51446;53.850;10.662;2023-11-19T01:37:43;100735.97;;;4.32;100.00
64933;BME280;51446;53.850;10.662;2023-11-19T01:40:09;100720.38;;;4.32;100.00
64933;BME280;51446;53.850;10.662;2023-11-19T01:42:37;100714.19;;;4.28;100.00
64933;BME280;51446;53.850;10.662;2023-11-19T01:45:03;100705.44;;;4.26;100.00
64933;BME280;51446;53.850;10.662;2023-11-19T01:47:31;100698.16;;;4.39;100.00
64933;BME280;51446;53.850;10.662;2023-11-19T01:49:57;100685.25;;;4.40;100.00
64933;BME280;51446;53.850;10.662;2023-11-19T01:52:23;100676.31;;;4.33;100.00
64933;BME280;51446;53.850;10.662;2023-11-19T01:54:49;100667.59;;;4.31;100.00
64933;BME280;51446;53.850;10.662;2023-11-19T01:57:15;100666.41;;;4.23;100.00
64933;BME280;51446;53.850;10.662;2023-11-19T01:59:40;100645.09;;;4.32;100.00
64933;BME280;51446;53.850;10.662;2023-11-19T02:02:07;100643.53;;;4.36;100.00
64933;BME280;51446;53.850;10.662;2023-11-19T02:04:32;100630.38;;;4.31;100.00
64933;BME280;51446;53.850;10.662;2023-11-19T02:06:58;100630.50;;;4.34;100.00
64933;BME280;51446;53.850;10.662;2023-11-19T02:09:23;100620.16;;;4.36;100.00
64933;BME280;51446;53.850;10.662;2023-11-19T02:11:49;100613.25;;;4.36;100.00
64933;BME280;51446;53.850;10.662;2023-11-19T02:14:17;100616.59;;;4.33;100.00
64933;BME280;51446;53.850;10.662;2023-11-19T02:16:43;100603.88;;;4.40;100.00
64933;BME280;51446;53.850;10.662;2023-11-19T02:19:08;100597.78;;;4.39;100.00
64933;BME280;51446;53.850;10.662;2023-11-19T02:21:35;100601.34;;;4.41;100.00
64933;BME280;51446;53.850;10.662;2023-11-19T02:24:04;100601.41;;;4.43;100.00
64933;BME280;51446;53.850;10.662;2023-11-19T02:26:39;100594.78;;;4.51;100.00
64933;BME280;51446;53.850;10.662;2023-11-19T02:29:09;100580.69;;;4.44;100.00
64933;BME280;51446;53.850;10.662;2023-11-19T02:31:34;100580.78;;;4.47;100.00
64933;BME280;51446;53.850;10.662;2023-11-19T02:34:00;100570.25;;;4.43;100.00
64933;BME280;51446;53.850;10.662;2023-11-19T02:36:27;100562.63;;;4.47;100.00
64933;BME280;51446;53.850;10.662;2023-11-19T02:38:52;100562.84;;;4.54;100.00
64933;BME280;51446;53.850;10.662;2023-11-19T02:41:18;100547.25;;;4.54;100.00
64933;BME280;51446;53.850;10.662;2023-11-19T02:43:43;100536.69;;;4.49;100.00
64933;BME280;51446;53.850;10.662;2023-11-19T02:46:08;100518.56;;;4.50;100.00
64933;BME280;51446;53.850;10.662;2023-11-19T02:48:34;100508.50;;;4.58;100.00
64933;BME280;51446;53.850;10.662;2023-11-19T02:51:03;100513.38;;;4.50;100.00
64933;BME280;51446;53.850;10.662;2023-11-19T02:53:29;100497.09;;;4.55;100.00
64933;BME280;51446;53.850;10.662;2023-11-19T02:55:54;100498.03;;;4.57;100.00
64933;BME280;51446;53.850;10.662;2023-11-19T02:58:26;100480.78;;;4.59;100.00
64933;BME280;51446;53.850;10.662;2023-11-19T03:00:53;100507.47;;;4.55;100.00
64933;BME280;51446;53.850;10.662;2023-11-19T03:03:34;100498.81;;;4.54;100.00
64933;BME280;51446;53.850;10.662;2023-11-19T03:06:07;100498.81;;;4.54;100.00
64933;BME280;51446;53.850;10.662;2023-11-19T03:08:34;100479.78;;;4.55;100.00
64933;BME280;51446;53.850;10.662;2023-11-19T03:11:00;100477.44;;;4.61;100.00
64933;BME280;51446;53.850;10.662;2023-11-19T03:13:25;100463.66;;;4.64;100.00
64933;BME280;51446;53.850;10.662;2023-11-19T03:15:50;100449.97;;;4.69;100.00
64933;BME280;51446;53.850;10.662;2023-11-19T03:18:16;100454.00;;;4.60;100.00
64933;BME280;51446;53.850;10.662;2023-11-19T03:20:41;100428.97;;;4.62;100.00
64933;BME280;51446;53.850;10.662;2023-11-19T03:23:07;100423.50;;;4.54;100.00
64933;BME280;51446;53.850;10.662;2023-11-19T03:25:32;100432.50;;;4.64;100.00
64933;BME280;51446;53.850;10.662;2023-11-19T03:28:02;100421.31;;;4.66;100.00
64933;BME280;51446;53.850;10.662;2023-11-19T03:30:28;100416.94;;;4.64;100.00
64933;BME280;51446;53.850;10.662;2023-11-19T03:32:57;100416.97;;;4.65;100.00
64933;BME280;51446;53.850;10.662;2023-11-19T03:35:23;100419.38;;;4.61;100.00
64933;BME280;51446;53.850;10.662;2023-11-19T03:37:49;100411.53;;;4.59;100.00
64933;BME280;51446;53.850;10.662;2023-11-19T03:40:15;100424.88;;;4.68;100.00
64933;BME280;51446;53.850;10.662;2023-11-19T03:42:40;100393.56;;;4.64;100.00
64933;BME280;51446;53.850;10.662;2023-11-19T03:45:07;100392.66;;;4.63;100.00
64933;BME280;51446;53.850;10.662;2023-11-19T03:47:34;100382.31;;;4.65;100.00
64933;BME280;51446;53.850;10.662;2023-11-19T03:49:59;100381.59;;;4.69;100.00
64933;BME280;51446;53.850;10.662;2023-11-19T03:52:24;100377.06;;;4.63;100.00
64933;BME280;51446;53.850;10.662;2023-11-19T03:54:52;100377.34;;;4.71;100.00
64933;BME280;51446;53.850;10.662;2023-11-19T03:57:17;100371.03;;;4.64;100.00
64933;BME280;51446;53.850;10.662;2023-11-19T03:59:43;100366.00;;;4.69;100.00
64933;BME280;51446;53.850;10.662;2023-11-19T04:02:09;100350.31;;;4.66;100.00
64933;BME280;51446;53.850;10.662;2023-11-19T04:04:35;100354.66;;;4.65;100.00
64933;BME280;51446;53.850;10.662;2023-11-19T04:07:01;100343.50;;;4.69;100.00
64933;BME280;51446;53.850;10.662;2023-11-19T04:09:28;100346.94;;;4.68;100.00
64933;BME280;51446;53.850;10.662;2023-11-19T04:11:53;100348.19;;;4.80;100.00
64933;BME280;51446;53.850;10.662;2023-11-19T04:14:18;100350.72;;;4.78;100.00
64933;BME280;51446;53.850;10.662;2023-11-19T04:16:44;100351.59;;;4.79;100.00
64933;BME280;51446;53.850;10.662;2023-11-19T04:19:10;100338.53;;;4.76;100.00
64933;BME280;51446;53.850;10.662;2023-11-19T04:21:36;100343.81;;;4.79;100.00
64933;BME280;51446;53.850;10.662;2023-11-19T04:24:01;100335.16;;;4.78;100.00
64933;BME280;51446;53.850;10.662;2023-11-19T04:26:26;100329.78;;;4.74;100.00
64933;BME280;51446;53.850;10.662;2023-11-19T04:28:52;100342.13;;;4.81;100.00
64933;BME280;51446;53.850;10.662;2023-11-19T04:31:17;100321.44;;;4.84;100.00
64933;BME280;51446;53.850;10.662;2023-11-19T04:33:42;100325.13;;;4.91;100.00
64933;BME280;51446;53.850;10.662;2023-11-19T04:36:09;100327.50;;;4.83;100.00
64933;BME280;51446;53.850;10.662;2023-11-19T04:38:34;100325.94;;;4.90;100.00
64933;BME280;51446;53.850;10.662;2023-11-19T04:40:59;100308.63;;;4.89;100.00
64933;BME280;51446;53.850;10.662;2023-11-19T04:43:25;100301.66;;;4.88;100.00
64933;BME280;51446;53.850;10.662;2023-11-19T04:45:50;100300.91;;;4.92;100.00
64933;BME280;51446;53.850;10.662;2023-11-19T04:48:15;100299.22;;;4.94;100.00
64933;BME280;51446;53.850;10.662;2023-11-19T04:50:41;100295.72;;;4.92;100.00
64933;BME280;51446;53.850;10.662;2023-11-19T04:53:06;100264.50;;;4.90;100.00
64933;BME280;51446;53.850;10.662;2023-11-19T04:55:31;100272.25;;;4.89;100.00
64933;BME280;51446;53.850;10.662;2023-11-19T04:57:56;100282.72;;;4.92;100.00
64933;BME280;51446;53.850;10.662;2023-11-19T05:00:22;100275.94;;;4.97;100.00
64933;BME280;51446;53.850;10.662;2023-11-19T05:02:47;100280.34;;;4.99;100.00
64933;BME280;51446;53.850;10.662;2023-11-19T05:05:12;100277.72;;;4.98;100.00
64933;BME280;51446;53.850;10.662;2023-11-19T05:07:38;100267.66;;;5.09;100.00
64933;BME280;51446;53.850;10.662;2023-11-19T05:10:03;100264.09;;;5.07;100.00
64933;BME280;51446;53.850;10.662;2023-11-19T05:12:29;100260.72;;;5.09;100.00
64933;BME280;51446;53.850;10.662;2023-11-19T05:14:54;100261.38;;;5.02;100.00
64933;BME280;51446;53.850;10.662;2023-11-19T05:17:20;100250.28;;;5.08;100.00
64933;BME280;51446;53.850;10.662;2023-11-19T05:19:45;100246.88;;;5.09;100.00
64933;BME280;51446;53.850;10.662;2023-11-19T05:22:11;100246.09;;;5.13;100.00
64933;BME280;51446;53.850;10.662;2023-11-19T05:24:37;100250.47;;;5.14;100.00
64933;BME280;51446;53.850;10.662;2023-11-19T05:27:02;100237.41;;;5.12;100.00
64933;BME280;51446;53.850;10.662;2023-11-19T05:29:28;100240.19;;;5.18;100.00
64933;BME280;51446;53.850;10.662;2023-11-19T05:31:53;100231.53;;;5.18;100.00
64933;BME280;51446;53.850;10.662;2023-11-19T05:34:20;100221.22;;;5.21;100.00
64933;BME280;51446;53.850;10.662;2023-11-19T05:36:46;100224.59;;;5.18;100.00
64933;BME280;51446;53.850;10.662;2023-11-19T05:39:11;100214.22;;;5.20;100.00
64933;BME280;51446;53.850;10.662;2023-11-19T05:41:36;100208.25;;;5.22;100.00
64933;BME280;51446;53.850;10.662;2023-11-19T05:44:02;100207.63;;;5.31;100.00
64933;BME280;51446;53.850;10.662;2023-11-19T05:46:27;100206.78;;;5.32;100.00
64933;BME280;51446;53.850;10.662;2023-11-19T05:48:52;100208.56;;;5.33;100.00
64933;BME280;51446;53.850;10.662;2023-11-19T05:51:18;100193.63;;;5.26;100.00
64933;BME280;51446;53.850;10.662;2023-11-19T05:53:43;100191.28;;;5.35;100.00
64933;BME280;51446;53.850;10.662;2023-11-19T05:56:10;100200.09;;;5.41;100.00
64933;BME280;51446;53.850;10.662;2023-11-19T05:58:36;100198.00;;;5.27;100.00
64933;BME280;51446;53.850;10.662;2023-11-19T06:01:02;100199.28;;;5.42;100.00
64933;BME280;51446;53.850;10.662;2023-11-19T06:03:28;100198.91;;;5.29;100.00
64933;BME280;51446;53.850;10.662;2023-11-19T06:05:53;100193.44;;;5.50;100.00
64933;BME280;51446;53.850;10.662;2023-11-19T06:08:19;100188.13;;;5.47;100.00
64933;BME280;51446;53.850;10.662;2023-11-19T06:10:46;100185.53;;;5.47;100.00
64933;BME280;51446;53.850;10.662;2023-11-19T06:13:11;100192.50;;;5.48;100.00
64933;BME280;51446;53.850;10.662;2023-11-19T06:15:37;100196.16;;;5.55;100.00
64933;BME280;51446;53.850;10.662;2023-11-19T06:18:03;100193.50;;;5.53;100.00
64933;BME280;51446;53.850;10.662;2023-11-19T06:20:32;100185.09;;;5.64;100.00
64933;BME280;51446;53.850;10.662;2023-11-19T06:22:58;100184.47;;;5.72;100.00
64933;BME280;51446;53.850;10.662;2023-11-19T06:25:23;100186.94;;;5.68;100.00
64933;BME280;51446;53.850;10.662;2023-11-19T06:27:52;100188.91;;;5.77;100.00
64933;BME280;51446;53.850;10.662;2023-11-19T06:30:18;100175.94;;;5.78;100.00
64933;BME280;51446;53.850;10.662;2023-11-19T06:32:44;100183.22;;;5.91;100.00
64933;BME280;51446;53.850;10.662;2023-11-19T06:35:09;100192.22;;;6.04;100.00
64933;BME280;51446;53.850;10.662;2023-11-19T06:37:35;100179.28;;;6.07;100.00
64933;BME280;51446;53.850;10.662;2023-11-19T06:40:00;100191.72;;;6.19;100.00
64933;BME280;51446;53.850;10.662;2023-11-19T06:42:26;100195.94;;;6.14;100.00
64933;BME280;51446;53.850;10.662;2023-11-19T06:44:51;100188.63;;;6.34;100.00
64933;BME280;51446;53.850;10.662;2023-11-19T06:47:17;100186.03;;;6.36;100.00
64933;BME280;51446;53.850;10.662;2023-11-19T06:49:44;100185.31;;;6.41;100.00
64933;BME280;51446;53.850;10.662;2023-11-19T06:52:09;100187.28;;;6.52;100.00
64933;BME280;51446;53.850;10.662;2023-11-19T06:54:35;100178.69;;;6.56;100.00
64933;BME280;51446;53.850;10.662;2023-11-19T06:57:00;100176.50;;;6.74;100.00
64933;BME280;51446;53.850;10.662;2023-11-19T06:59:25;100176.50;;;6.74;100.00
64933;BME280;51446;53.850;10.662;2023-11-19T07:01:51;100174.88;;;6.81;100.00
64933;BME280;51446;53.850;10.662;2023-11-19T07:04:16;100175.72;;;6.79;100.00
64933;BME280;51446;53.850;10.662;2023-11-19T07:06:41;100176.59;;;6.79;100.00
64933;BME280;51446;53.850;10.662;2023-11-19T07:09:07;100174.25;;;6.91;100.00
64933;BME280;51446;53.850;10.662;2023-11-19T07:11:37;100176.22;;;7.03;100.00
64933;BME280;51446;53.850;10.662;2023-11-19T07:14:03;100173.41;;;6.94;100.00
64933;BME280;51446;53.850;10.662;2023-11-19T07:16:29;100169.41;;;7.11;100.00
64933;BME280;51446;53.850;10.662;2023-11-19T07:18:54;100177.19;;;7.08;100.00
64933;BME280;51446;53.850;10.662;2023-11-19T07:21:20;100175.47;;;7.09;100.00
64933;BME280;51446;53.850;10.662;2023-11-19T07:23:45;100178.47;;;7.29;100.00
64933;BME280;51446;53.850;10.662;2023-11-19T07:26:11;100182.59;;;7.18;100.00
64933;BME280;51446;53.850;10.662;2023-11-19T07:28:37;100173.88;;;7.17;100.00
64933;BME280;51446;53.850;10.662;2023-11-19T07:31:02;100165.25;;;7.20;100.00
64933;BME280;51446;53.850;10.662;2023-11-19T07:33:28;100175.50;;;7.10;100.00
64933;BME280;51446;53.850;10.662;2023-11-19T07:35:54;100155.72;;;7.20;100.00
64933;BME280;51446;53.850;10.662;2023-11-19T07:38:20;100178.56;;;7.34;100.00
64933;BME280;51446;53.850;10.662;2023-11-19T07:40:45;100160.41;;;7.40;100.00
64933;BME280;51446;53.850;10.662;2023-11-19T07:43:10;100169.47;;;7.60;100.00
64933;BME280;51446;53.850;10.662;2023-11-19T07:45:35;100169.28;;;7.50;100.00
64933;BME280;51446;53.850;10.662;2023-11-19T07:48:01;100171.31;;;7.66;100.00
64933;BME280;51446;53.850;10.662;2023-11-19T07:50:26;100167.22;;;7.80;100.00
64933;BME280;51446;53.850;10.662;2023-11-19T07:52:53;100168.25;;;7.90;100.00
64933;BME280;51446;53.850;10.662;2023-11-19T07:55:18;100174.41;;;7.92;100.00
64933;BME280;51446;53.850;10.662;2023-11-19T07:57:44;100169.28;;;7.98;100.00
64933;BME280;51446;53.850;10.662;2023-11-19T08:00:10;100172.06;;;8.11;100.00
64933;BME280;51446;53.850;10.662;2023-11-19T08:02:37;100174.88;;;8.22;100.00
64933;BME280;51446;53.850;10.662;2023-11-19T08:05:03;100181.22;;;8.39;100.00
64933;BME280;51446;53.850;10.662;2023-11-19T08:07:28;100187.53;;;8.50;100.00
64933;BME280;51446;53.850;10.662;2023-11-19T08:09:53;100167.63;;;8.59;100.00
64933;BME280;51446;53.850;10.662;2023-11-19T08:12:18;100174.81;;;8.75;100.00
64933;BME280;51446;53.850;10.662;2023-11-19T08:14:44;100179.31;;;8.89;100.00
64933;BME280;51446;53.850;10.662;2023-11-19T08:17:09;100179.50;;;9.02;100.00
64933;BME280;51446;53.850;10.662;2023-11-19T08:19:34;100177.06;;;9.15;100.00
64933;BME280;51446;53.850;10.662;2023-11-19T08:22:00;100179.59;;;9.09;100.00
64933;BME280;51446;53.850;10.662;2023-11-19T08:24:25;100182.38;;;9.24;100.00
64933;BME280;51446;53.850;10.662;2023-11-19T08:26:50;100180.72;;;9.29;100.00
64933;BME280;51446;53.850;10.662;2023-11-19T08:29:15;100179.00;;;9.33;100.00
64933;BME280;51446;53.850;10.662;2023-11-19T08:31:42;100170.34;;;9.38;100.00
64933;BME280;51446;53.850;10.662;2023-11-19T08:34:07;100174.94;;;9.60;100.00
64933;BME280;51446;53.850;10.662;2023-11-19T08:36:34;100178.47;;;9.66;100.00
64933;BME280;51446;53.850;10.662;2023-11-19T08:38:59;100174.03;;;9.61;100.00
64933;BME280;51446;53.850;10.662;2023-11-19T08:41:24;100182.91;;;9.75;100.00
64933;BME280;51446;53.850;10.662;2023-11-19T08:43:50;100177.00;;;9.98;100.00
64933;BME280;51446;53.850;10.662;2023-11-19T08:46:16;100182.41;;;10.16;100.00
64933;BME280;51446;53.850;10.662;2023-11-19T08:48:42;100177.22;;;10.24;100.00
64933;BME280;51446;53.850;10.662;2023-11-19T08:51:07;100173.88;;;10.39;100.00
64933;BME280;51446;53.850;10.662;2023-11-19T08:53:33;100166.06;;;10.47;100.00
64933;BME280;51446;53.850;10.662;2023-11-19T08:55:58;100165.22;;;10.52;100.00
64933;BME280;51446;53.850;10.662;2023-11-19T08:58:23;100172.22;;;10.55;100.00
64933;BME280;51446;53.850;10.662;2023-11-19T09:00:49;100178.44;;;10.69;100.00
64933;BME280;51446;53.850;10.662;2023-11-19T09:03:14;100174.13;;;10.78;100.00
64933;BME280;51446;53.850;10.662;2023-11-19T09:05:39;100171.53;;;10.90;100.00
64933;BME280;51446;53.850;10.662;2023-11-19T09:08:04;100182.06;;;10.96;100.00
64933;BME280;51446;53.850;10.662;2023-11-19T09:10:30;100171.59;;;11.02;100.00
64933;BME280;51446;53.850;10.662;2023-11-19T09:12:55;100174.25;;;11.10;100.00
64933;BME280;51446;53.850;10.662;2023-11-19T09:15:20;100182.13;;;11.05;100.00
64933;BME280;51446;53.850;10.662;2023-11-19T09:17:45;100172.47;;;11.01;100.00
64933;BME280;51446;53.850;10.662;2023-11-19T09:20:11;100175.09;;;11.00;100.00
64933;BME280;51446;53.850;10.662;2023-11-19T09:22:40;100184.75;;;11.13;100.00
64933;BME280;51446;53.850;10.662;2023-11-19T09:25:05;100183.00;;;11.10;100.00
64933;BME280;51446;53.850;10.662;2023-11-19T09:27:30;100184.75;;;11.16;100.00
64933;BME280;51446;53.850;10.662;2023-11-19T09:29:56;100190.94;;;11.24;100.00
64933;BME280;51446;53.850;10.662;2023-11-19T09:32:23;100188.31;;;11.24;100.00
64933;BME280;51446;53.850;10.662;2023-11-19T09:34:49;100191.75;;;11.13;100.00
64933;BME280;51446;53.850;10.662;2023-11-19T09:37:14;100177.72;;;11.07;100.00
64933;BME280;51446;53.850;10.662;2023-11-19T09:39:39;100192.59;;;11.01;100.00
64933;BME280;51446;53.850;10.662;2023-11-19T09:42:09;100185.56;;;10.93;100.00
64933;BME280;51446;53.850;10.662;2023-11-19T09:44:34;100181.16;;;10.83;100.00
64933;BME280;51446;53.850;10.662;2023-11-19T09:47:00;100193.34;;;10.78;100.00
64933;BME280;51446;53.850;10.662;2023-11-19T09:49:26;100188.09;;;10.75;100.00
64933;BME280;51446;53.850;10.662;2023-11-19T09:51:52;100195.03;;;10.65;100.00
64933;BME280;51446;53.850;10.662;2023-11-19T09:54:18;100192.38;;;10.64;100.00
64933;BME280;51446;53.850;10.662;2023-11-19T09:56:43;100193.25;;;10.63;100.00
64933;BME280;51446;53.850;10.662;2023-11-19T09:59:09;100189.75;;;10.62;100.00
64933;BME280;51446;53.850;10.662;2023-11-19T10:01:37;100184.44;;;10.53;100.00
64933;BME280;51446;53.850;10.662;2023-11-19T10:04:02;100190.59;;;10.56;100.00
64933;BME280;51446;53.850;10.662;2023-11-19T10:06:28;100198.44;;;10.55;100.00
64933;BME280;51446;53.850;10.662;2023-11-19T10:08:54;100204.56;;;10.58;100.00
64933;BME280;51446;53.850;10.662;2023-11-19T10:11:20;100213.34;;;10.59;100.00
64933;BME280;51446;53.850;10.662;2023-11-19T10:13:45;100208.03;;;10.51;100.00
64933;BME280;51446;53.850;10.662;2023-11-19T10:16:13;100206.31;;;10.55;100.00
64933;BME280;51446;53.850;10.662;2023-11-19T10:18:49;100204.56;;;10.57;100.00
64933;BME280;51446;53.850;10.662;2023-11-19T10:21:18;100202.00;;;10.62;100.00
64933;BME280;51446;53.850;10.662;2023-11-19T10:23:51;100202.91;;;10.68;100.00
64933;BME280;51446;53.850;10.662;2023-11-19T10:26:17;100201.13;;;10.64;100.00
64933;BME280;51446;53.850;10.662;2023-11-19T10:28:43;100209.91;;;10.71;100.00
64933;BME280;51446;53.850;10.662;2023-11-19T10:31:11;100210.88;;;10.84;100.00
64933;BME280;51446;53.850;10.662;2023-11-19T10:33:36;100211.78;;;10.90;100.00
64933;BME280;51446;53.850;10.662;2023-11-19T10:36:02;100210.88;;;10.90;100.00
64933;BME280;51446;53.850;10.662;2023-11-19T10:38:27;100212.66;;;10.94;100.00
64933;BME280;51446;53.850;10.662;2023-11-19T10:40:53;100204.75;;;10.83;100.00
64933;BME280;51446;53.850;10.662;2023-11-19T10:43:20;100215.25;;;10.86;100.00
64933;BME280;51446;53.850;10.662;2023-11-19T10:45:47;100219.59;;;10.81;100.00
64933;BME280;51446;53.850;10.662;2023-11-19T10:48:12;100217.88;;;10.88;100.00
64933;BME280;51446;53.850;10.662;2023-11-19T10:50:39;100213.47;;;10.79;100.00
64933;BME280;51446;53.850;10.662;2023-11-19T10:53:06;100216.94;;;10.73;100.00
64933;BME280;51446;53.850;10.662;2023-11-19T10:55:41;100215.06;;;10.57;100.00
64933;BME280;51446;53.850;10.662;2023-11-19T10:58:09;100234.34;;;10.65;100.00
64933;BME280;51446;53.850;10.662;2023-11-19T11:03:16;100222.88;;;10.51;100.00
64933;BME280;51446;53.850;10.662;2023-11-19T11:05:42;100229.00;;;10.53;100.00
64933;BME280;51446;53.850;10.662;2023-11-19T11:08:07;100229.13;;;10.71;100.00
64933;BME280;51446;53.850;10.662;2023-11-19T11:10:39;100230.88;;;10.68;100.00
64933;BME280;51446;53.850;10.662;2023-11-19T11:13:05;100224.81;;;10.78;100.00
64933;BME280;51446;53.850;10.662;2023-11-19T11:15:31;100226.56;;;10.76;100.00
64933;BME280;51446;53.850;10.662;2023-11-19T11:18:01;100231.75;;;10.70;100.00
64933;BME280;51446;53.850;10.662;2023-11-19T11:20:30;100227.34;;;10.64;100.00
64933;BME280;51446;53.850;10.662;2023-11-19T11:23:30;100225.56;;;10.58;100.00
64933;BME280;51446;53.850;10.662;2023-11-19T11:29:02;100231.84;;;10.81;100.00
64933;BME280;51446;53.850;10.662;2023-11-19T11:37:52;100226.56;;;10.76;100.00
64933;BME280;51446;53.850;10.662;2023-11-19T11:40:14;100223.91;;;10.73;100.00
64933;BME280;51446;53.850;10.662;2023-11-19T11:42:41;100237.06;;;10.76;100.00
64933;BME280;51446;53.850;10.662;2023-11-19T11:45:11;100237.88;;;10.69;100.00
64933;BME280;51446;53.850;10.662;2023-11-19T11:50:10;100230.06;;;10.78;100.00
64933;BME280;51446;53.850;10.662;2023-11-19T11:58:25;100227.53;;;10.95;100.00
64933;BME280;51446;53.850;10.662;2023-11-19T12:00:51;100216.94;;;10.76;100.00
64933;BME280;51446;53.850;10.662;2023-11-19T12:03:20;100215.25;;;10.86;100.00
64933;BME280;51446;53.850;10.662;2023-11-19T12:05:48;100217.03;;;10.90;100.00
64933;BME280;51446;53.850;10.662;2023-11-19T12:08:18;100214.44;;;10.95;100.00
64933;BME280;51446;53.850;10.662;2023-11-19T12:10:52;100211.72;;;10.80;100.00
64933;BME280;51446;53.850;10.662;2023-11-19T12:13:19;100214.41;;;10.92;100.00
64933;BME280;51446;53.850;10.662;2023-11-19T12:18:29;100222.28;;;10.93;100.00
64933;BME280;51446;53.850;10.662;2023-11-19T12:20:56;100225.88;;;11.16;100.00
64933;BME280;51446;53.850;10.662;2023-11-19T12:23:22;100221.56;;;11.28;100.00
64933;BME280;51446;53.850;10.662;2023-11-19T12:25:48;100229.44;;;11.28;100.00
64933;BME280;51446;53.850;10.662;2023-11-19T12:28:14;100222.41;;;11.23;100.00
64933;BME280;51446;53.850;10.662;2023-11-19T12:30:39;100229.44;;;11.28;100.00
64933;BME280;51446;53.850;10.662;2023-11-19T12:33:08;100223.25;;;11.11;100.00
64933;BME280;51446;53.850;10.662;2023-11-19T12:35:39;100224.09;;;11.07;100.00
64933;BME280;51446;53.850;10.662;2023-11-19T12:38:04;100229.34;;;11.10;100.00
64933;BME280;51446;53.850;10.662;2023-11-19T12:40:30;100227.56;;;10.98;100.00
64933;BME280;51446;53.850;10.662;2023-11-19T12:42:55;100233.72;;;11.06;100.00
64933;BME280;51446;53.850;10.662;2023-11-19T12:45:21;100226.69;;;10.99;100.00
64933;BME280;51446;53.850;10.662;2023-11-19T12:47:48;100225.81;;;11.03;100.00
64933;BME280;51446;53.850;10.662;2023-11-19T12:50:15;100223.25;;;11.16;100.00
64933;BME280;51446;53.850;10.662;2023-11-19T12:52:42;100226.75;;;11.16;100.00
64933;BME280;51446;53.850;10.662;2023-11-19T12:55:27;100224.19;;;11.30;100.00